Time;durP1;ratioP1;P1;durP2;ratioP2;P2;SDS_P1;SDS_P2;PMS_P1;PMS_P2;Temp;Humidity;BMP_temperature;BMP_pressure;BME280_temperature;BME280_humidity;BME280_pressure;Samples;Min_cycle;Max_cycle;Signal;HPM_P1;HPM_P2
2024/02/15 00:03:13;;;;;;;12.27;10.95;;;;;;;;;;9921724;28;20039;-79
2024/02/15 00:08:24;;;;;;;16.90;14.30;;;;;;;;;;9944336;28;20027;-79
2024/02/15 00:13:16;;;;;;;22.83;17.02;;;;;;;;;;9944009;28;20501;-79
2024/02/15 00:18:08;;;;;;;20.65;16.67;;;;;;;;;;9944037;28;20063;-79
2024/02/15 00:23:00;;;;;;;19.63;15.38;;;;;;;;;;9944261;28;20047;-79
2024/02/15 00:27:52;;;;;;;16.98;13.38;;;;;;;;;;9943319;28;20541;-79
2024/02/15 00:32:46;;;;;;;15.18;12.75;;;;;;;;;;9943427;28;20073;-79
2024/02/15 00:37:40;;;;;;;15.85;13.10;;;;;;;;;;9922244;28;20090;-79
2024/02/15 00:42:32;;;;;;;15.50;12.48;;;;;;;;;;9907336;28;20047;-79
2024/02/15 00:47:24;;;;;;;18.10;12.13;;;;;;;;;;9906367;28;20054;-77
2024/02/15 00:52:19;;;;;;;13.43;11.55;;;;;;;;;;9906177;28;20817;-80
2024/02/15 00:57:11;;;;;;;19.50;12.30;;;;;;;;;;9907058;28;20134;-77
2024/02/15 01:02:05;;;;;;;16.83;12.57;;;;;;;;;;9906701;28;20074;-78
2024/02/15 01:06:57;;;;;;;14.85;12.35;;;;;;;;;;9907100;28;20054;-78
2024/02/15 01:11:49;;;;;;;14.68;11.65;;;;;;;;;;9905776;28;20184;-77
2024/02/15 01:16:44;;;;;;;13.35;11.25;;;;;;;;;;9906320;28;20051;-78
2024/02/15 01:21:36;;;;;;;11.63;9.50;;;;;;;;;;9906695;28;20051;-78
2024/02/15 01:26:28;;;;;;;17.13;13.82;;;;;;;;;;9905875;28;20043;-78
2024/02/15 01:31:21;;;;;;;9.70;8.70;;;;;;;;;;9905851;28;20035;-78
2024/02/15 01:36:16;;;;;;;13.55;10.30;;;;;;;;;;9905253;28;20059;-78
2024/02/15 01:41:08;;;;;;;15.20;10.10;;;;;;;;;;9905469;28;20110;-80
2024/02/15 01:46:03;;;;;;;12.65;11.35;;;;;;;;;;9887905;28;20054;-79
2024/02/15 01:50:56;;;;;;;14.23;12.52;;;;;;;;;;9905458;28;20055;-78
2024/02/15 01:55:48;;;;;;;17.48;14.43;;;;;;;;;;9894183;28;20063;-78
2024/02/15 02:00:40;;;;;;;15.05;12.88;;;;;;;;;;9911930;28;20059;-78
2024/02/15 02:05:32;;;;;;;12.75;10.30;;;;;;;;;;9917279;28;20328;-78
2024/02/15 02:10:24;;;;;;;14.10;10.32;;;;;;;;;;9912715;28;20090;-78
2024/02/15 02:15:16;;;;;;;16.88;10.82;;;;;;;;;;9912052;28;20082;-78
2024/02/15 02:20:10;;;;;;;15.63;11.55;;;;;;;;;;9912454;28;20078;-78
2024/02/15 02:25:10;;;;;;;18.40;13.95;;;;;;;;;;9913819;28;20051;-80
2024/02/15 02:30:14;;;;;;;13.55;11.10;;;;;;;;;;9912694;28;20047;-78
2024/02/15 02:35:07;;;;;;;11.73;10.38;;;;;;;;;;9911621;28;20554;-78
2024/02/15 02:39:59;;;;;;;13.88;10.95;;;;;;;;;;9912026;28;20727;-78
2024/02/15 02:44:51;;;;;;;18.15;10.32;;;;;;;;;;9910696;28;20407;-78
2024/02/15 02:49:43;;;;;;;13.43;11.90;;;;;;;;;;9910930;28;20043;-78
2024/02/15 02:54:35;;;;;;;11.30;8.70;;;;;;;;;;9911358;28;20151;-80
2024/02/15 02:59:27;;;;;;;13.43;9.00;;;;;;;;;;9911906;28;20459;-80
2024/02/15 03:04:19;;;;;;;10.30;8.45;;;;;;;;;;9911146;28;20048;-78
2024/02/15 03:09:14;;;;;;;8.93;7.85;;;;;;;;;;9910581;28;20051;-79
2024/02/15 03:14:06;;;;;;;11.73;7.32;;;;;;;;;;9910273;28;20059;-78
2024/02/15 03:18:59;;;;;;;9.55;7.03;;;;;;;;;;9910519;28;20156;-79
2024/02/15 03:23:51;;;;;;;13.95;7.22;;;;;;;;;;9910061;28;20529;-79
2024/02/15 03:28:44;;;;;;;14.73;8.55;;;;;;;;;;9909365;28;20047;-80
2024/02/15 03:33:37;;;;;;;14.07;8.88;;;;;;;;;;9910787;28;20128;-79
2024/02/15 03:38:30;;;;;;;14.10;8.60;;;;;;;;;;9910665;28;20158;-78
2024/02/15 03:43:23;;;;;;;15.27;9.85;;;;;;;;;;9909101;28;20045;-79
2024/02/15 03:48:15;;;;;;;11.25;9.20;;;;;;;;;;9908553;28;20096;-79
2024/02/15 03:53:11;;;;;;;16.13;11.15;;;;;;;;;;9909041;28;20047;-79
2024/02/15 03:58:03;;;;;;;14.43;11.48;;;;;;;;;;9908654;28;20055;-79
2024/02/15 04:02:56;;;;;;;12.55;11.20;;;;;;;;;;9908892;28;20580;-79
2024/02/15 04:07:48;;;;;;;16.92;11.80;;;;;;;;;;9909212;28;20170;-79
2024/02/15 04:12:43;;;;;;;15.20;11.65;;;;;;;;;;9908760;28;20427;-79
2024/02/15 04:17:35;;;;;;;15.10;12.75;;;;;;;;;;9907754;28;20565;-79
2024/02/15 04:22:28;;;;;;;12.18;10.88;;;;;;;;;;9907550;28;20176;-79
2024/02/15 04:27:20;;;;;;;15.02;11.52;;;;;;;;;;9908329;28;20047;-79
2024/02/15 04:32:13;;;;;;;16.75;10.73;;;;;;;;;;9908039;28;20039;-79
2024/02/15 04:37:08;;;;;;;15.45;11.20;;;;;;;;;;9907754;28;20129;-78
2024/02/15 04:42:00;;;;;;;13.50;11.88;;;;;;;;;;9927734;28;20113;-78
2024/02/15 04:46:55;;;;;;;15.55;12.57;;;;;;;;;;9942462;28;20054;-78
2024/02/15 04:51:49;;;;;;;15.38;12.75;;;;;;;;;;9943323;28;20117;-79
2024/02/15 04:56:42;;;;;;;20.27;14.90;;;;;;;;;;9942241;28;20039;-79
2024/02/15 05:01:35;;;;;;;20.50;14.05;;;;;;;;;;9943005;28;20134;-79
2024/02/15 05:06:29;;;;;;;16.88;12.25;;;;;;;;;;9942891;28;20046;-78
2024/02/15 05:11:22;;;;;;;20.27;14.80;;;;;;;;;;9942207;28;20047;-79
2024/02/15 05:16:14;;;;;;;13.27;11.65;;;;;;;;;;9941998;28;20493;-79
2024/02/15 05:21:09;;;;;;;13.20;10.07;;;;;;;;;;9942222;28;20382;-78
2024/02/15 05:26:01;;;;;;;15.32;12.68;;;;;;;;;;9942092;28;20047;-78
2024/02/15 05:31:21;;;;;;;20.17;17.10;;;;;;;;;;9941848;28;20054;-79
2024/02/15 05:36:14;;;;;;;52.50;42.27;;;;;;;;;;9941374;28;20058;-79
2024/02/15 05:41:10;;;;;;;48.65;39.88;;;;;;;;;;9942525;28;20047;-79
2024/02/15 05:46:08;;;;;;;36.53;32.50;;;;;;;;;;9942005;28;20514;-79
2024/02/15 05:51:00;;;;;;;49.28;38.30;;;;;;;;;;9941924;28;20055;-78
2024/02/15 05:55:53;;;;;;;28.33;22.08;;;;;;;;;;9941474;28;20059;-78
2024/02/15 06:00:44;;;;;;;24.73;20.08;;;;;;;;;;9918716;28;20049;-79
2024/02/15 06:05:38;;;;;;;28.13;19.85;;;;;;;;;;9904468;28;20136;-80
2024/02/15 06:10:30;;;;;;;22.00;19.23;;;;;;;;;;9873629;28;20453;-79
2024/02/15 06:15:23;;;;;;;34.00;24.45;;;;;;;;;;9905796;28;20106;-80
2024/02/15 06:20:17;;;;;;;34.15;30.13;;;;;;;;;;9901871;28;20143;-78
2024/02/15 06:25:10;;;;;;;35.72;24.98;;;;;;;;;;9900286;28;20053;-79
2024/02/15 06:40:25;;;;;;;78.70;55.80;;;;;;;;;;9898853;28;20741;-77
2024/02/15 06:45:17;;;;;;;50.72;34.03;;;;;;;;;;9902473;28;20043;-78
2024/02/15 06:50:11;;;;;;;94.60;59.17;;;;;;;;;;9908283;28;20047;-81
2024/02/15 06:55:03;;;;;;;138.63;88.95;;;;;;;;;;9910597;28;20051;-79
2024/02/15 06:59:56;;;;;;;25.45;18.98;;;;;;;;;;9911327;28;20119;-80
2024/02/15 07:04:49;;;;;;;21.73;16.25;;;;;;;;;;9910166;28;20043;-78
2024/02/15 07:09:40;;;;;;;26.25;20.25;;;;;;;;;;9911053;28;20118;-78
2024/02/15 07:14:32;;;;;;;31.17;24.58;;;;;;;;;;9909612;28;20043;-78
2024/02/15 07:19:26;;;;;;;28.02;24.90;;;;;;;;;;9908660;28;20059;-77
2024/02/15 07:24:19;;;;;;;35.05;27.60;;;;;;;;;;9909726;28;20395;-78
2024/02/15 07:29:11;;;;;;;25.40;17.92;;;;;;;;;;9908929;28;20047;-78
2024/02/15 07:34:03;;;;;;;20.75;17.50;;;;;;;;;;9910159;28;20055;-78
2024/02/15 07:39:00;;;;;;;27.27;19.13;;;;;;;;;;9909712;28;20081;-77
2024/02/15 07:43:55;;;;;;;35.97;24.80;;;;;;;;;;9908309;28;20479;-79
2024/02/15 07:48:47;;;;;;;35.58;28.45;;;;;;;;;;9908511;28;20040;-77
2024/02/15 07:53:40;;;;;;;34.83;26.95;;;;;;;;;;9908198;28;20126;-77
2024/02/15 07:58:32;;;;;;;35.90;29.33;;;;;;;;;;9909483;28;20098;-77
2024/02/15 08:03:24;;;;;;;37.03;30.75;;;;;;;;;;9909057;28;20147;-77
2024/02/15 08:08:16;;;;;;;35.53;29.92;;;;;;;;;;9908121;28;20043;-77
2024/02/15 08:13:09;;;;;;;36.42;26.33;;;;;;;;;;9908721;28;20109;-76
2024/02/15 08:18:05;;;;;;;33.33;25.60;;;;;;;;;;9907600;28;20059;-76
2024/02/15 08:22:59;;;;;;;27.35;18.63;;;;;;;;;;9907091;28;20039;-76
2024/02/15 08:27:51;;;;;;;29.55;22.40;;;;;;;;;;9907110;28;20219;-77
2024/02/15 08:32:43;;;;;;;32.40;26.02;;;;;;;;;;9907565;28;20043;-79
2024/02/15 08:37:37;;;;;;;31.80;24.63;;;;;;;;;;9906967;28;20542;-79
2024/02/15 08:42:29;;;;;;;29.13;22.73;;;;;;;;;;9912421;28;20047;-81
2024/02/15 08:47:21;;;;;;;34.25;24.80;;;;;;;;;;9904672;28;20039;-79
2024/02/15 08:52:13;;;;;;;27.45;19.38;;;;;;;;;;9901375;28;20067;-80
2024/02/15 08:57:06;;;;;;;19.50;13.48;;;;;;;;;;9904408;28;20124;-78
2024/02/15 09:02:00;;;;;;;22.08;14.20;;;;;;;;;;9901651;28;20058;-80
2024/02/15 09:06:52;;;;;;;21.38;16.48;;;;;;;;;;9899020;28;20070;-78
2024/02/15 09:11:44;;;;;;;21.08;14.95;;;;;;;;;;9901193;28;20055;-78
2024/02/15 09:16:36;;;;;;;21.70;16.30;;;;;;;;;;9903451;28;20054;-78
2024/02/15 09:21:29;;;;;;;20.88;16.77;;;;;;;;;;9904291;28;20055;-79
2024/02/15 09:26:20;;;;;;;21.90;16.90;;;;;;;;;;9903333;28;20274;-78
2024/02/15 09:31:13;;;;;;;26.42;18.75;;;;;;;;;;9904623;28;20146;-78
2024/02/15 09:36:06;;;;;;;26.08;18.38;;;;;;;;;;9907036;28;20188;-78
2024/02/15 09:40:58;;;;;;;22.38;17.75;;;;;;;;;;9903264;28;20047;-79
2024/02/15 09:45:50;;;;;;;25.60;18.88;;;;;;;;;;9904755;28;20409;-78
2024/02/15 09:50:42;;;;;;;25.35;18.92;;;;;;;;;;9904236;28;20465;-78
2024/02/15 09:55:35;;;;;;;24.63;17.20;;;;;;;;;;9905342;28;20340;-79
2024/02/15 10:00:27;;;;;;;26.02;16.80;;;;;;;;;;9890431;28;20080;-78
2024/02/15 10:05:20;;;;;;;24.02;17.92;;;;;;;;;;9903183;28;20043;-76
2024/02/15 10:10:23;;;;;;;24.67;20.05;;;;;;;;;;9903449;28;20541;-76
2024/02/15 10:15:35;;;;;;;22.05;18.50;;;;;;;;;;9903110;28;20182;-76
2024/02/15 10:20:28;;;;;;;26.35;18.17;;;;;;;;;;9891175;28;20566;-76
2024/02/15 10:25:22;;;;;;;23.10;17.98;;;;;;;;;;9913045;28;20134;-77
2024/02/15 10:30:23;;;;;;;26.48;19.58;;;;;;;;;;9910656;28;20488;-77
2024/02/15 10:35:21;;;;;;;23.52;19.27;;;;;;;;;;9911500;28;20055;-76
2024/02/15 10:40:16;;;;;;;24.85;18.17;;;;;;;;;;9910248;28;20059;-76
2024/02/15 10:45:10;;;;;;;28.25;20.00;;;;;;;;;;9893100;28;20047;-76
2024/02/15 10:50:05;;;;;;;26.08;19.40;;;;;;;;;;9894425;28;20039;-76
2024/02/15 10:55:03;;;;;;;21.13;18.38;;;;;;;;;;9909168;28;20081;-76
2024/02/15 11:00:10;;;;;;;22.98;19.35;;;;;;;;;;9909734;28;20043;-76
2024/02/15 11:05:10;;;;;;;22.10;18.38;;;;;;;;;;9909486;28;20134;-77
2024/02/15 11:10:10;;;;;;;25.83;17.92;;;;;;;;;;9909161;28;20435;-76
2024/02/15 11:15:04;;;;;;;21.52;18.92;;;;;;;;;;9910551;28;20447;-76
2024/02/15 11:19:56;;;;;;;21.55;17.90;;;;;;;;;;9908283;28;20086;-76
2024/02/15 11:24:49;;;;;;;21.70;18.02;;;;;;;;;;9893341;28;20439;-76
2024/02/15 11:29:51;;;;;;;19.75;16.15;;;;;;;;;;9907588;28;20039;-76
2024/02/15 11:34:48;;;;;;;21.60;17.58;;;;;;;;;;9907131;28;20047;-76
2024/02/15 11:39:41;;;;;;;21.70;16.77;;;;;;;;;;9907346;28;20561;-76
2024/02/15 11:44:33;;;;;;;22.25;17.30;;;;;;;;;;9907746;28;20063;-77
2024/02/15 11:49:26;;;;;;;23.02;16.52;;;;;;;;;;9907647;28;20044;-75
2024/02/15 11:54:20;;;;;;;28.35;17.80;;;;;;;;;;9907799;28;20047;-77
2024/02/15 11:59:18;;;;;;;18.63;15.80;;;;;;;;;;9908271;28;20099;-76
2024/02/15 12:19:43;;;;;;;19.38;15.57;;;;;;;;;;9915965;28;20522;-75
2024/02/15 12:24:35;;;;;;;20.98;17.40;;;;;;;;;;9891825;28;20054;-77
2024/02/15 12:29:28;;;;;;;24.27;17.98;;;;;;;;;;9896248;28;20075;-77
2024/02/15 12:34:20;;;;;;;20.02;16.67;;;;;;;;;;9905441;28;20463;-77
2024/02/15 12:39:14;;;;;;;19.90;16.65;;;;;;;;;;9915505;28;20047;-77
2024/02/15 12:44:07;;;;;;;20.88;17.33;;;;;;;;;;9908587;28;20134;-77
2024/02/15 12:49:21;;;;;;;23.15;18.48;;;;;;;;;;9905528;28;20478;-75
2024/02/15 12:54:14;;;;;;;22.58;17.80;;;;;;;;;;9907233;28;20082;-75
2024/02/15 12:59:06;;;;;;;24.02;18.55;;;;;;;;;;9905826;28;20058;-74
2024/02/15 13:03:58;;;;;;;21.88;16.77;;;;;;;;;;9904195;28;20043;-73
2024/02/15 13:08:50;;;;;;;25.80;20.05;;;;;;;;;;9903619;28;20043;-74
2024/02/15 13:13:42;;;;;;;22.38;17.85;;;;;;;;;;9903981;28;20130;-75
2024/02/15 13:18:34;;;;;;;27.70;18.95;;;;;;;;;;9903339;28;20086;-74
2024/02/15 13:23:26;;;;;;;23.92;18.13;;;;;;;;;;9902759;28;20075;-74
2024/02/15 13:28:18;;;;;;;26.00;19.70;;;;;;;;;;9903183;28;20053;-74
2024/02/15 13:33:14;;;;;;;20.65;18.05;;;;;;;;;;9903900;28;20043;-74
2024/02/15 13:38:08;;;;;;;22.95;18.58;;;;;;;;;;9903327;28;20051;-74
2024/02/15 13:43:04;;;;;;;27.85;20.13;;;;;;;;;;9903606;28;20043;-76
2024/02/15 13:47:57;;;;;;;23.85;19.15;;;;;;;;;;9904563;28;20059;-76
2024/02/15 13:52:49;;;;;;;23.92;21.13;;;;;;;;;;9906177;28;20050;-78
2024/02/15 13:57:42;;;;;;;27.65;19.90;;;;;;;;;;9911360;28;20117;-73
2024/02/15 14:02:34;;;;;;;27.27;19.83;;;;;;;;;;9913262;28;20035;-72
2024/02/15 14:07:26;;;;;;;29.83;19.40;;;;;;;;;;9912303;28;20043;-80
2024/02/15 14:12:19;;;;;;;27.65;19.00;;;;;;;;;;9896651;28;20043;-81
2024/02/15 14:17:11;;;;;;;26.65;18.83;;;;;;;;;;9914504;28;20359;-80
2024/02/15 14:22:08;;;;;;;29.55;20.52;;;;;;;;;;9917129;28;20078;-80
2024/02/15 14:27:00;;;;;;;26.73;20.35;;;;;;;;;;9896075;28;20050;-81
2024/02/15 14:37:06;;;;;;;26.75;19.35;;;;;;;;;;9911359;28;20433;-81
2024/02/15 14:41:58;;;;;;;25.08;21.33;;;;;;;;;;9916820;28;20046;-82
2024/02/15 14:46:50;;;;;;;25.88;22.00;;;;;;;;;;9923959;28;20051;-81
2024/02/15 14:51:42;;;;;;;25.70;19.23;;;;;;;;;;9917238;28;20074;-82
2024/02/15 14:56:34;;;;;;;31.58;21.45;;;;;;;;;;9910104;28;20105;-82
2024/02/15 15:01:29;;;;;;;31.55;23.92;;;;;;;;;;9919706;28;21094;-81
2024/02/15 15:16:43;;;;;;;25.70;22.90;;;;;;;;;;9919746;28;20493;-82
2024/02/15 15:21:35;;;;;;;28.25;22.83;;;;;;;;;;9920245;28;20075;-82
2024/02/15 15:26:27;;;;;;;28.98;22.95;;;;;;;;;;9911704;28;20051;-83
2024/02/15 15:31:21;;;;;;;24.52;21.63;;;;;;;;;;9910081;28;20050;-83
2024/02/15 15:36:17;;;;;;;35.17;25.88;;;;;;;;;;9907729;28;20051;-83
2024/02/15 15:41:09;;;;;;;27.77;23.15;;;;;;;;;;9911463;28;20054;-84
2024/02/15 15:46:02;;;;;;;32.30;25.25;;;;;;;;;;9910371;28;20059;-83
2024/02/15 15:50:54;;;;;;;29.48;22.92;;;;;;;;;;9915314;28;20071;-82
2024/02/15 15:55:46;;;;;;;36.53;26.85;;;;;;;;;;9910018;28;20058;-83
2024/02/15 16:00:38;;;;;;;32.22;25.50;;;;;;;;;;9909030;28;20038;-84
2024/02/15 16:05:31;;;;;;;33.55;24.45;;;;;;;;;;9913583;28;20466;-85
2024/02/15 16:10:25;;;;;;;29.90;20.50;;;;;;;;;;9910892;28;20042;-84
2024/02/15 16:15:20;;;;;;;28.80;22.13;;;;;;;;;;9913300;28;20165;-83
2024/02/15 16:20:15;;;;;;;26.15;22.15;;;;;;;;;;9914149;28;20043;-84
2024/02/15 16:25:11;;;;;;;27.80;23.10;;;;;;;;;;9906202;28;20051;-84
2024/02/15 16:30:08;;;;;;;29.85;23.13;;;;;;;;;;9910829;28;20094;-84
2024/02/15 16:35:02;;;;;;;28.95;23.25;;;;;;;;;;9907415;28;20400;-83
2024/02/15 16:39:56;;;;;;;33.10;25.10;;;;;;;;;;9914961;28;20534;-84
2024/02/15 16:44:48;;;;;;;27.48;22.98;;;;;;;;;;9913563;28;20474;-77
2024/02/15 16:49:40;;;;;;;36.47;28.20;;;;;;;;;;9903238;28;20039;-82
2024/02/15 16:54:32;;;;;;;37.33;24.52;;;;;;;;;;9902615;28;20069;-82
2024/02/15 16:59:24;;;;;;;34.47;25.65;;;;;;;;;;9902939;28;20427;-81
2024/02/15 17:04:16;;;;;;;34.15;24.13;;;;;;;;;;9901495;28;20415;-82
2024/02/15 17:09:08;;;;;;;39.97;27.63;;;;;;;;;;9902510;28;20193;-81
2024/02/15 17:14:01;;;;;;;45.30;37.75;;;;;;;;;;9903284;28;20138;-80
2024/02/15 17:18:53;;;;;;;38.38;30.48;;;;;;;;;;9903938;28;20524;-82
2024/02/15 17:23:47;;;;;;;38.60;28.52;;;;;;;;;;9912258;28;20082;-82
2024/02/15 17:28:39;;;;;;;36.80;29.08;;;;;;;;;;9909189;28;20062;-82
2024/02/15 17:33:30;;;;;;;46.78;33.72;;;;;;;;;;9904646;28;20066;-82
2024/02/15 17:38:23;;;;;;;49.92;37.20;;;;;;;;;;9904896;28;20047;-82
2024/02/15 17:43:15;;;;;;;41.13;29.38;;;;;;;;;;9905216;28;20047;-82
2024/02/15 17:48:07;;;;;;;38.88;31.25;;;;;;;;;;9913523;28;20058;-81
2024/02/15 17:52:59;;;;;;;63.65;42.50;;;;;;;;;;9904106;28;20055;-83
2024/02/15 17:57:50;;;;;;;51.00;30.10;;;;;;;;;;9904706;28;20428;-83
2024/02/15 18:02:47;;;;;;;49.78;31.92;;;;;;;;;;9905104;28;20054;-78
2024/02/15 18:07:41;;;;;;;43.50;33.13;;;;;;;;;;9900512;28;20524;-82
2024/02/15 18:12:33;;;;;;;48.50;32.83;;;;;;;;;;9903369;28;20071;-86
2024/02/15 18:17:26;;;;;;;49.25;36.65;;;;;;;;;;9912474;28;20047;-86
2024/02/15 18:22:18;;;;;;;41.55;33.15;;;;;;;;;;9911051;28;20150;-87
2024/02/15 18:27:10;;;;;;;43.22;32.35;;;;;;;;;;9929465;28;20058;-85
2024/02/15 18:32:02;;;;;;;44.83;33.17;;;;;;;;;;9922258;28;20665;-86
2024/02/15 18:36:54;;;;;;;48.80;33.72;;;;;;;;;;9894767;28;20152;-87
2024/02/15 18:41:47;;;;;;;48.85;36.85;;;;;;;;;;9924648;28;20093;-86
2024/02/15 18:46:39;;;;;;;47.10;36.08;;;;;;;;;;9938735;28;20114;-87
2024/02/15 18:51:36;;;;;;;46.55;34.05;;;;;;;;;;9913606;28;20047;-87
2024/02/15 18:56:28;;;;;;;46.17;34.78;;;;;;;;;;9910329;28;20047;-87
2024/02/15 19:01:23;;;;;;;42.60;35.03;;;;;;;;;;9920973;28;20066;-86
2024/02/15 19:06:15;;;;;;;55.78;38.15;;;;;;;;;;9925916;28;20553;-87
2024/02/15 19:11:07;;;;;;;51.83;38.13;;;;;;;;;;9914428;28;20091;-85
2024/02/15 19:15:59;;;;;;;53.63;38.22;;;;;;;;;;9923670;28;20110;-88
2024/02/15 19:20:51;;;;;;;59.13;39.25;;;;;;;;;;9920926;28;20070;-88
2024/02/15 19:25:44;;;;;;;57.90;40.35;;;;;;;;;;9943060;28;20078;-82
2024/02/15 19:30:36;;;;;;;53.15;41.22;;;;;;;;;;9939414;28;20423;-90
2024/02/15 19:35:30;;;;;;;52.83;40.78;;;;;;;;;;9944569;28;20379;-89
2024/02/15 19:40:23;;;;;;;58.30;43.10;;;;;;;;;;9940780;28;20051;-88
2024/02/15 19:45:17;;;;;;;60.03;43.83;;;;;;;;;;9946836;28;20063;-88
2024/02/15 19:50:13;;;;;;;60.20;43.95;;;;;;;;;;9945725;28;20558;-89
2024/02/15 19:55:05;;;;;;;59.50;44.30;;;;;;;;;;9946234;28;20047;-88
2024/02/15 19:59:59;;;;;;;62.20;46.75;;;;;;;;;;9946765;28;20057;-89
2024/02/15 20:04:51;;;;;;;54.83;44.13;;;;;;;;;;9949441;28;20051;-92
2024/02/15 20:09:45;;;;;;;61.20;46.38;;;;;;;;;;9949712;28;20110;-89
2024/02/15 20:14:39;;;;;;;53.63;42.72;;;;;;;;;;9926858;28;20106;-89
2024/02/15 20:19:32;;;;;;;62.60;46.88;;;;;;;;;;9937686;28;20066;-89
2024/02/15 20:24:24;;;;;;;58.92;45.70;;;;;;;;;;9943558;28;20057;-89
2024/02/15 20:29:16;;;;;;;60.72;45.03;;;;;;;;;;9942207;28;20486;-89
2024/02/15 20:34:08;;;;;;;59.17;43.67;;;;;;;;;;9944311;28;20047;-89
2024/02/15 20:39:00;;;;;;;60.30;45.90;;;;;;;;;;9942679;28;20058;-89
2024/02/15 20:43:53;;;;;;;57.42;43.78;;;;;;;;;;9926518;28;20055;-89
2024/02/15 20:48:45;;;;;;;62.33;45.00;;;;;;;;;;9931800;28;20043;-88
2024/02/15 20:53:38;;;;;;;60.75;44.60;;;;;;;;;;9936647;28;20085;-82
2024/02/15 20:58:30;;;;;;;61.95;47.30;;;;;;;;;;9943388;28;20519;-88
2024/02/15 21:03:22;;;;;;;62.72;47.47;;;;;;;;;;9944418;28;20055;-88
2024/02/15 21:08:19;;;;;;;63.03;48.17;;;;;;;;;;9943743;28;20057;-90
2024/02/15 21:13:10;;;;;;;62.15;46.28;;;;;;;;;;9944135;28;20098;-89
2024/02/15 21:18:03;;;;;;;61.40;46.75;;;;;;;;;;9942488;28;20150;-88
2024/02/15 21:22:56;;;;;;;65.20;48.72;;;;;;;;;;9945165;28;20057;-85
2024/02/15 21:27:48;;;;;;;67.78;51.60;;;;;;;;;;9959200;28;20153;-88
2024/02/15 21:32:43;;;;;;;75.78;56.53;;;;;;;;;;9945744;28;20078;-89
2024/02/15 21:37:35;;;;;;;66.15;48.72;;;;;;;;;;9941875;28;20426;-88
2024/02/15 21:42:27;;;;;;;68.28;50.33;;;;;;;;;;9942424;28;20062;-89
2024/02/15 21:47:19;;;;;;;61.85;49.03;;;;;;;;;;9942081;28;20418;-89
2024/02/15 21:52:11;;;;;;;55.88;43.80;;;;;;;;;;9942717;28;20047;-88
2024/02/15 21:57:05;;;;;;;53.63;42.67;;;;;;;;;;9936026;28;20393;-88
2024/02/15 22:01:58;;;;;;;55.20;44.88;;;;;;;;;;9940793;28;20475;-88
2024/02/15 22:06:49;;;;;;;56.42;44.70;;;;;;;;;;9911772;28;20055;-88
2024/02/15 22:11:42;;;;;;;61.25;43.67;;;;;;;;;;9924175;28;20047;-88
2024/02/15 22:16:35;;;;;;;58.70;43.25;;;;;;;;;;9948092;28;20149;-88
2024/02/15 22:21:27;;;;;;;57.45;43.65;;;;;;;;;;9948785;28;20058;-88
2024/02/15 22:26:19;;;;;;;63.42;46.55;;;;;;;;;;9931751;28;20055;-88
2024/02/15 22:31:21;;;;;;;95.40;65.35;;;;;;;;;;9948183;28;20147;-88
2024/02/15 22:36:24;;;;;;;72.10;54.28;;;;;;;;;;9943797;28;20367;-88
2024/02/15 22:41:16;;;;;;;71.85;56.38;;;;;;;;;;9935657;28;20043;-87
2024/02/15 22:46:08;;;;;;;75.85;54.65;;;;;;;;;;9947290;28;20177;-86
2024/02/15 22:51:04;;;;;;;70.60;52.75;;;;;;;;;;9917142;28;20126;-87
2024/02/15 22:55:56;;;;;;;75.80;54.40;;;;;;;;;;9947825;28;20438;-88
2024/02/15 23:00:49;;;;;;;73.70;56.00;;;;;;;;;;9946266;28;20042;-87
2024/02/15 23:05:41;;;;;;;66.80;52.47;;;;;;;;;;9944546;28;20138;-87
2024/02/15 23:10:34;;;;;;;73.22;51.90;;;;;;;;;;9947375;28;20126;-87
2024/02/15 23:15:26;;;;;;;68.68;52.22;;;;;;;;;;9928535;28;20051;-87
2024/02/15 23:20:18;;;;;;;63.72;50.53;;;;;;;;;;9932757;28;20097;-86
2024/02/15 23:25:11;;;;;;;65.13;50.63;;;;;;;;;;9934100;28;20053;-87
2024/02/15 23:30:05;;;;;;;68.95;49.25;;;;;;;;;;9920945;28;20119;-87
2024/02/15 23:34:57;;;;;;;67.50;49.90;;;;;;;;;;9908799;28;20057;-87
2024/02/15 23:45:10;;;;;;;70.93;53.15;;;;;;;;;;9883147;28;20062;-87
2024/02/15 23:50:02;;;;;;;71.30;52.28;;;;;;;;;;9909035;28;20059;-86
2024/02/15 23:54:54;;;;;;;66.80;49.95;;;;;;;;;;9909253;28;20053;-87
2024/02/15 23:59:46;;;;;;;70.85;48.92;;;;;;;;;;9910714;28;20047;-86
